createdAt,value
2023-04-25T00:02:32.869Z,10.25
2023-04-25T00:07:38.967Z,10.32
2023-04-25T00:12:43.232Z,10.26
2023-04-25T00:17:47.667Z,10.26
2023-04-25T00:22:53.784Z,10.25
2023-04-25T00:27:57.896Z,10.19
2023-04-25T00:33:01.831Z,10.19
2023-04-25T00:38:07.458Z,10.16
2023-04-25T00:43:11.703Z,10.13
2023-04-25T00:48:15.997Z,10.12
2023-04-25T00:53:21.592Z,10.12
2023-04-25T00:58:25.592Z,10.03
2023-04-25T01:03:31.034Z,10.06
2023-04-25T01:08:37.500Z,9.97
2023-04-25T01:13:41.588Z,9.96
2023-04-25T01:18:45.822Z,10.05
2023-04-25T01:23:52.347Z,9.95
2023-04-25T01:28:57.877Z,9.96
2023-04-25T01:34:02.684Z,9.99
2023-04-25T01:39:08.817Z,10.02
2023-04-25T01:44:12.887Z,9.94
2023-04-25T01:49:17.093Z,9.79
2023-04-25T01:54:23.538Z,9.77
2023-04-25T01:59:28.005Z,9.69
2023-04-25T02:04:44.891Z,9.46
2023-04-25T02:09:51.989Z,9.33
2023-04-25T02:14:57.381Z,9.34
2023-04-25T02:20:14.916Z,9.33
2023-04-25T02:25:20.994Z,9.18
2023-04-25T02:30:24.879Z,9.20
2023-04-25T02:35:28.803Z,9.22
2023-04-25T02:40:34.096Z,9.14
2023-04-25T02:45:38.791Z,9.12
2023-04-25T02:50:43.433Z,9.16
2023-04-25T02:55:48.629Z,9.19
2023-04-25T03:00:52.662Z,9.09
2023-04-25T03:05:56.985Z,9.07
2023-04-25T03:11:08.533Z,9.00
2023-04-25T03:16:13.074Z,8.99
2023-04-25T03:21:16.998Z,8.95
2023-04-25T03:26:22.506Z,8.88
2023-04-25T03:31:26.563Z,8.74
2023-04-25T03:36:30.745Z,8.68
2023-04-25T03:41:36.301Z,8.58
2023-04-25T03:46:46.020Z,8.58
2023-04-25T03:51:50.354Z,8.56
2023-04-25T03:56:55.841Z,8.54
2023-04-25T04:02:03.239Z,8.52
2023-04-25T04:07:09.081Z,8.44
2023-04-25T04:12:16.850Z,8.40
2023-04-25T04:17:21.839Z,8.38
2023-04-25T04:22:26.673Z,8.30
2023-04-25T04:27:35.856Z,8.36
2023-04-25T04:33:02.762Z,8.47
2023-04-25T04:38:07.314Z,8.39
2023-04-25T04:43:15.849Z,8.42
2023-04-25T04:48:41.125Z,8.40
2023-04-25T04:54:08.147Z,8.29
2023-04-25T04:59:31.681Z,8.27
2023-04-25T05:04:43.775Z,8.26
2023-04-25T05:10:07.846Z,8.31
2023-04-25T05:15:39.619Z,8.24
2023-04-25T05:21:04.066Z,8.20
2023-04-25T05:26:43.700Z,8.28
2023-04-25T05:32:09.491Z,8.50
2023-04-25T05:37:13.511Z,8.46
2023-04-25T05:42:29.424Z,8.61
2023-04-25T05:48:01.103Z,8.79
2023-04-25T05:53:31.544Z,8.78
2023-04-25T05:58:38.409Z,8.76
2023-04-25T06:03:44.447Z,8.98
2023-04-25T06:08:48.676Z,9.06
2023-04-25T06:13:53.055Z,9.06
2023-04-25T06:18:58.575Z,9.16
2023-04-25T06:24:03.573Z,9.25
2023-04-25T06:29:08.272Z,9.24
2023-04-25T06:34:13.800Z,9.34
2023-04-25T06:39:21.088Z,9.45
2023-04-25T06:44:27.381Z,9.54
2023-04-25T06:49:32.764Z,9.58
2023-04-25T06:54:37.284Z,9.69
2023-04-25T06:59:53.543Z,9.64
2023-04-25T07:05:01.005Z,9.83
2023-04-25T07:10:06.425Z,9.91
2023-04-25T07:15:12.579Z,9.97
2023-04-25T07:20:21.140Z,10.19
2023-04-25T07:25:25.986Z,10.18
2023-04-25T07:30:30.931Z,10.20
2023-04-25T07:35:36.686Z,10.30
2023-04-25T07:40:40.557Z,10.58
2023-04-25T07:45:47.006Z,10.44
2023-04-25T07:50:54.063Z,10.46
2023-04-25T07:55:58.699Z,10.35
2023-04-25T08:01:03.350Z,10.41
2023-04-25T08:06:14.906Z,10.58
2023-04-25T08:11:34.510Z,10.70
2023-04-25T08:16:38.819Z,10.73
2023-04-25T08:21:44.902Z,10.77
2023-04-25T08:26:53.861Z,10.58
2023-04-25T08:32:00.357Z,10.62
2023-04-25T08:37:06.908Z,10.55
2023-04-25T08:42:25.608Z,10.62
2023-04-25T08:47:29.948Z,10.74
2023-04-25T08:52:39.024Z,10.74
2023-04-25T08:57:44.432Z,10.49
2023-04-25T09:02:49.369Z,10.53
2023-04-25T09:07:55.314Z,10.83
2023-04-25T09:13:07.009Z,10.81
2023-04-25T09:18:30.753Z,10.80
2023-04-25T09:23:43.747Z,10.84
2023-04-25T09:28:49.043Z,10.81
2023-04-25T09:34:01.560Z,10.77
2023-04-25T09:39:16.212Z,10.76
2023-04-25T09:44:26.506Z,11.21
2023-04-25T09:49:32.476Z,11.37
2023-04-25T09:54:50.318Z,11.45
2023-04-25T10:00:04.437Z,11.29
2023-04-25T10:05:18.741Z,11.65
2023-04-25T10:10:26.808Z,11.64
2023-04-25T10:15:31.009Z,11.86
2023-04-25T10:20:35.427Z,12.22
2023-04-25T10:25:41.556Z,12.13
2023-04-25T10:30:59.664Z,12.21
2023-04-25T10:36:11.995Z,12.15
2023-04-25T10:41:19.692Z,12.14
2023-04-25T10:46:25.637Z,12.39
2023-04-25T10:51:40.072Z,12.37
2023-04-25T10:56:56.453Z,12.02
2023-04-25T11:02:00.646Z,11.84
2023-04-25T11:07:13.583Z,11.98
2023-04-25T11:12:19.026Z,11.95
2023-04-25T11:17:23.078Z,11.66
2023-04-25T11:22:28.238Z,11.63
2023-04-25T11:27:34.160Z,12.19
2023-04-25T11:32:38.481Z,11.95
2023-04-25T11:37:43.157Z,11.59
2023-04-25T11:42:49.533Z,11.72
2023-04-25T11:47:53.634Z,11.83
2023-04-25T11:52:59.164Z,11.58
2023-04-25T11:58:06.618Z,11.46
2023-04-25T12:03:11.894Z,11.54
2023-04-25T12:08:17.558Z,11.46
2023-04-25T12:13:27.690Z,11.50
2023-04-25T12:18:31.647Z,11.46
2023-04-25T12:23:35.820Z,11.46
2023-04-25T12:28:41.542Z,11.45
2023-04-25T12:33:48.819Z,11.68
2023-04-25T12:38:53.224Z,11.76
2023-04-25T12:43:58.905Z,11.93
2023-04-25T12:49:17.246Z,12.03
2023-04-25T12:54:22.334Z,11.59
2023-04-25T12:59:27.890Z,11.57
2023-04-25T13:04:32.264Z,11.67
2023-04-25T13:09:36.478Z,11.65
2023-04-25T13:14:41.909Z,11.44
2023-04-25T13:19:46.220Z,11.57
2023-04-25T13:24:50.462Z,11.37
2023-04-25T13:29:55.939Z,11.49
2023-04-25T13:34:59.750Z,11.28
2023-04-25T13:40:06.022Z,11.30
2023-04-25T13:45:11.983Z,11.31
2023-04-25T13:50:17.047Z,11.28
2023-04-25T13:55:21.354Z,11.23
2023-04-25T14:00:26.824Z,11.11
2023-04-25T14:05:30.656Z,11.20
2023-04-25T14:10:34.511Z,11.01
2023-04-25T14:15:39.810Z,11.24
2023-04-25T14:20:43.677Z,11.22
2023-04-25T14:25:48.628Z,11.22
2023-04-25T14:30:54.506Z,11.25
2023-04-25T14:35:59.157Z,10.98
2023-04-25T14:41:02.975Z,11.04
2023-04-25T14:46:08.655Z,11.18
2023-04-25T14:51:12.768Z,11.24
2023-04-25T14:56:16.949Z,11.41
2023-04-25T15:01:22.949Z,11.45
2023-04-25T15:06:29.667Z,11.60
2023-04-25T15:11:33.810Z,11.61
2023-04-25T15:16:39.627Z,11.73
2023-04-25T15:21:43.600Z,11.82
2023-04-25T15:26:47.522Z,11.97
2023-04-25T15:31:52.913Z,11.85
2023-04-25T15:36:58.674Z,11.89
2023-04-25T15:42:03.527Z,12.24
2023-04-25T15:47:09.101Z,12.07
2023-04-25T15:52:13.252Z,12.00
2023-04-25T15:57:17.275Z,11.77
2023-04-25T16:02:23.225Z,11.82
2023-04-25T16:07:27.101Z,11.59
2023-04-25T16:12:31.903Z,11.27
2023-04-25T16:17:37.686Z,11.12
2023-04-25T16:22:43.029Z,11.14
2023-04-25T16:27:46.869Z,11.21
2023-04-25T16:32:52.153Z,11.33
2023-04-25T16:37:56.073Z,11.12
2023-04-25T16:43:00.633Z,10.94
2023-04-25T16:48:06.260Z,10.81
2023-04-25T16:53:10.299Z,10.70
2023-04-25T16:58:14.574Z,10.57
2023-04-25T17:03:20.385Z,10.56
2023-04-25T17:08:24.604Z,10.58
2023-04-25T17:13:30.706Z,10.60
2023-04-25T17:18:37.331Z,10.55
2023-04-25T17:23:45.668Z,10.43
2023-04-25T17:28:50.150Z,10.27
2023-04-25T17:33:55.941Z,10.09
2023-04-25T17:39:00.003Z,10.02
2023-04-25T17:44:04.123Z,9.88
2023-04-25T17:49:09.607Z,9.73
2023-04-25T17:54:13.547Z,9.55
2023-04-25T17:59:17.818Z,9.30
2023-04-25T18:04:23.049Z,9.11
2023-04-25T18:09:28.792Z,9.01
2023-04-25T18:14:34.295Z,8.80
2023-04-25T18:19:39.607Z,8.67
2023-04-25T18:24:44.740Z,8.56
2023-04-25T18:29:48.621Z,8.46
2023-04-25T18:34:53.966Z,8.27
2023-04-25T18:39:58.609Z,8.12
2023-04-25T18:45:03.137Z,8.02
2023-04-25T18:50:09.870Z,7.89
2023-04-25T18:55:13.936Z,7.89
2023-04-25T19:00:18.411Z,8.00
2023-04-25T19:05:23.697Z,8.03
2023-04-25T19:10:28.961Z,8.00
2023-04-25T19:15:33.496Z,8.02
2023-04-25T19:20:39.378Z,8.11
2023-04-25T19:25:43.780Z,8.08
2023-04-25T19:30:47.787Z,8.19
2023-04-25T19:35:53.105Z,8.25
2023-04-25T19:40:57.276Z,8.29
2023-04-25T19:46:01.403Z,8.34
2023-04-25T19:51:07.734Z,8.40
2023-04-25T19:56:11.945Z,8.32
2023-04-25T20:01:17.301Z,8.28
2023-04-25T20:06:23.101Z,8.21
2023-04-25T20:11:29.115Z,8.20
2023-04-25T20:16:33.056Z,8.11
2023-04-25T20:21:38.728Z,8.02
2023-04-25T20:26:42.580Z,8.06
2023-04-25T20:31:46.790Z,7.98
2023-04-25T20:36:52.917Z,7.98
2023-04-25T20:41:57.728Z,7.95
2023-04-25T20:47:02.140Z,7.94
2023-04-25T20:52:07.988Z,7.89
2023-04-25T20:57:12.213Z,7.92
2023-04-25T21:02:16.457Z,7.90
2023-04-25T21:07:21.917Z,7.92
2023-04-25T21:12:26.152Z,7.81
2023-04-25T21:17:30.425Z,7.79
2023-04-25T21:22:36.389Z,7.77
2023-04-25T21:27:40.702Z,7.76
2023-04-25T21:32:46.317Z,7.76
2023-04-25T21:37:52.627Z,7.74
2023-04-25T21:42:56.800Z,7.73
2023-04-25T21:48:00.800Z,7.70
2023-04-25T21:53:08.584Z,7.61
2023-04-25T21:58:12.461Z,7.71
2023-04-25T22:03:16.769Z,7.62
2023-04-25T22:08:22.492Z,7.64
2023-04-25T22:13:28.498Z,7.59
2023-04-25T22:18:32.698Z,7.60
2023-04-25T22:23:38.440Z,7.56
2023-04-25T22:28:42.491Z,7.49
2023-04-25T22:33:48.560Z,7.48
2023-04-25T22:38:54.809Z,7.40
2023-04-25T22:43:59.027Z,7.41
2023-04-25T22:49:02.946Z,7.40
2023-04-25T22:54:08.311Z,7.36
2023-04-25T22:59:12.174Z,7.37
2023-04-25T23:04:16.718Z,7.35
2023-04-25T23:09:22.225Z,7.24
2023-04-25T23:14:26.235Z,7.11
2023-04-25T23:19:30.187Z,7.09
2023-04-25T23:24:39.013Z,6.98
2023-04-25T23:29:43.244Z,6.84
2023-04-25T23:34:47.362Z,6.64
2023-04-25T23:39:53.373Z,6.54
2023-04-25T23:44:57.193Z,6.35
2023-04-25T23:50:01.354Z,6.30
2023-04-25T23:55:07.984Z,6.14
